Terminal Aerodrome Forecast
Issued by NWS

Home | Current Version | Previous Version | Text Only | Print | Product List | Glossary On
Versions: 1 2 3 4 5 6 7 8 9 10 11 12 13 14 15 16 17 18 19 20 21 22 23
000
FTAK31 PAJN 242339
TAFAGY
TAF
PAGY 242339Z 2500/2524 21012G20KT P6SM VCSH OVC060
      TEMPO 2501/2505 20020G30KT
     FM250700 21012G20KT P6SM SCT025 OVC050
      TEMPO 2507/2511 6SM BCFG SCT004 BKN025
     FM251100 21010KT P6SM BKN025 OVC040
     FM252000 20008KT P6SM SCT025
      AMD LTD TO CLD VIS AND WIND=

USA.gov is the U.S. government's official web portal to all federal, state and local government web resources and services.